createdAt,value
2019-05-23T00:00:30.825Z,18.70
2019-05-23T00:03:00.264Z,19.67
2019-05-23T00:05:33.293Z,17.37
2019-05-23T00:08:03.277Z,19.10
2019-05-23T00:10:33.372Z,20.97
2019-05-23T00:13:03.557Z,19.92
2019-05-23T00:15:35.034Z,19.93
2019-05-23T00:18:04.816Z,19.20
2019-05-23T00:20:34.262Z,18.30
2019-05-23T00:23:03.167Z,19.60
2019-05-23T00:25:33.754Z,19.20
2019-05-23T00:28:03.532Z,18.90
2019-05-23T00:30:33.665Z,20.40
2019-05-23T00:33:03.189Z,22.02
2019-05-23T00:35:32.178Z,19.67
2019-05-23T00:38:02.384Z,20.10
2019-05-23T00:40:30.953Z,16.97
2019-05-23T00:43:00.271Z,19.65
2019-05-23T00:45:29.140Z,19.03
2019-05-23T00:47:57.745Z,17.57
2019-05-23T00:50:27.692Z,16.10
2019-05-23T00:52:56.701Z,18.63
2019-05-23T00:55:26.232Z,18.47
2019-05-23T00:57:55.847Z,20.25
2019-05-23T01:00:25.115Z,24.47
2019-05-23T01:02:53.990Z,19.10
2019-05-23T01:05:23.061Z,21.12
2019-05-23T01:07:51.599Z,24.10
2019-05-23T01:10:20.641Z,20.90
2019-05-23T01:12:49.987Z,20.62
2019-05-23T01:15:18.720Z,21.95
2019-05-23T01:17:47.857Z,20.80
2019-05-23T01:20:21.020Z,19.35
2019-05-23T01:22:50.698Z,24.00
2019-05-23T01:25:21.309Z,19.45
2019-05-23T01:27:51.075Z,17.67
2019-05-23T01:30:23.901Z,18.67
2019-05-23T01:32:57.012Z,23.03
2019-05-23T01:35:25.980Z,20.27
2019-05-23T01:37:55.118Z,22.73
2019-05-23T01:40:23.616Z,19.85
2019-05-23T01:42:52.250Z,21.43
2019-05-23T01:45:22.928Z,22.55
2019-05-23T01:47:52.089Z,23.50
2019-05-23T01:50:23.513Z,20.80
2019-05-23T01:52:52.818Z,26.45
2019-05-23T01:55:21.757Z,21.97
2019-05-23T01:57:51.152Z,21.00
2019-05-23T02:00:21.775Z,21.75
2019-05-23T02:02:50.984Z,22.32
2019-05-23T02:05:19.774Z,21.33
2019-05-23T02:07:48.620Z,25.30
2019-05-23T02:10:19.558Z,22.35
2019-05-23T02:12:48.323Z,24.83
2019-05-23T02:15:16.877Z,20.30
2019-05-23T02:17:45.533Z,21.57
2019-05-23T02:20:16.489Z,22.75
2019-05-23T02:22:45.152Z,22.70
2019-05-23T02:25:15.423Z,30.30
2019-05-23T02:27:44.347Z,24.87
2019-05-23T02:30:32.992Z,23.62
2019-05-23T02:32:47.416Z,24.03
2019-05-23T02:35:15.942Z,24.18
2019-05-23T02:37:51.621Z,25.77
2019-05-23T02:40:24.718Z,20.30
2019-05-23T02:43:00.607Z,22.52
2019-05-23T02:45:47.280Z,27.02
2019-05-23T02:48:35.875Z,23.00
2019-05-23T02:51:14.174Z,23.20
2019-05-23T02:53:44.290Z,20.57
2019-05-23T02:56:14.732Z,20.83
2019-05-23T02:58:59.399Z,25.02
2019-05-23T03:01:44.343Z,22.20
2019-05-23T03:04:26.410Z,22.42
2019-05-23T03:06:56.321Z,23.83
2019-05-23T03:09:28.058Z,21.77
2019-05-23T03:11:59.365Z,25.13
2019-05-23T03:14:28.073Z,28.98
2019-05-23T03:16:59.205Z,28.10
2019-05-23T03:19:34.280Z,25.17
2019-05-23T03:22:31.798Z,36.03
2019-05-23T03:25:04.042Z,22.05
2019-05-23T03:27:35.708Z,23.47
2019-05-23T03:30:08.419Z,23.57
2019-05-23T03:32:41.802Z,30.90
2019-05-23T03:35:14.836Z,20.50
2019-05-23T03:37:43.970Z,24.07
2019-05-23T03:40:12.788Z,25.92
2019-05-23T03:42:41.368Z,24.50
2019-05-23T03:45:11.742Z,23.38
2019-05-23T03:47:41.408Z,20.43
2019-05-23T03:50:11.999Z,22.55
2019-05-23T03:52:40.766Z,25.13
2019-05-23T03:55:10.946Z,23.60
2019-05-23T03:57:41.261Z,23.97
2019-05-23T04:00:13.671Z,23.20
2019-05-23T04:02:42.545Z,24.00
2019-05-23T04:05:11.568Z,23.95
2019-05-23T04:07:41.119Z,24.32
2019-05-23T04:10:09.998Z,20.40
2019-05-23T04:12:39.329Z,23.33
2019-05-23T04:15:09.411Z,21.93
2019-05-23T04:17:38.158Z,23.30
2019-05-23T04:20:08.126Z,23.38
2019-05-23T04:22:36.796Z,20.57
2019-05-23T04:25:09.221Z,25.12
2019-05-23T04:27:38.259Z,22.60
2019-05-23T04:30:10.055Z,19.30
2019-05-23T04:32:39.493Z,24.75
2019-05-23T04:35:08.777Z,21.07
2019-05-23T04:37:37.268Z,24.63
2019-05-23T04:40:11.207Z,22.90
2019-05-23T04:42:39.883Z,20.17
2019-05-23T04:45:08.797Z,20.27
2019-05-23T04:47:38.275Z,19.97
2019-05-23T04:50:08.746Z,20.40
2019-05-23T04:52:38.584Z,18.90
2019-05-23T04:55:08.666Z,27.65
2019-05-23T04:57:37.637Z,20.20
2019-05-23T05:00:09.291Z,19.80
2019-05-23T05:02:39.432Z,19.87
2019-05-23T05:05:08.607Z,19.05
2019-05-23T05:07:38.838Z,21.30
2019-05-23T05:10:07.747Z,19.77
2019-05-23T05:12:36.391Z,22.40
2019-05-23T05:15:06.282Z,20.12
2019-05-23T05:17:35.439Z,19.67
2019-05-23T05:20:06.570Z,21.52
2019-05-23T05:22:35.150Z,20.60
2019-05-23T05:25:05.526Z,21.20
2019-05-23T05:27:34.789Z,18.33
2019-05-23T05:30:05.099Z,22.05
2019-05-23T05:32:44.259Z,19.60
2019-05-23T05:35:06.924Z,20.75
2019-05-23T05:37:35.663Z,20.80
2019-05-23T05:40:06.251Z,23.70
2019-05-23T05:42:35.959Z,20.47
2019-05-23T05:45:09.317Z,20.60
2019-05-23T05:47:38.762Z,18.90
2019-05-23T05:50:08.281Z,21.55
2019-05-23T05:52:38.144Z,21.50
2019-05-23T05:55:07.560Z,23.45
2019-05-23T05:57:36.494Z,24.33
2019-05-23T06:00:12.956Z,20.25
2019-05-23T06:02:41.169Z,17.95
2019-05-23T06:05:11.811Z,28.73
2019-05-23T06:07:42.114Z,20.17
2019-05-23T06:10:14.324Z,22.77
2019-05-23T06:12:43.032Z,27.70
2019-05-23T06:15:11.891Z,24.40
2019-05-23T06:17:40.531Z,24.83
2019-05-23T06:20:09.432Z,20.37
2019-05-23T06:22:38.298Z,21.77
2019-05-23T06:25:08.413Z,18.87
2019-05-23T06:27:37.606Z,21.60
2019-05-23T06:30:10.359Z,20.32
2019-05-23T06:32:38.826Z,18.37
2019-05-23T06:35:08.040Z,19.52
2019-05-23T06:37:36.896Z,22.52
2019-05-23T06:40:07.963Z,19.12
2019-05-23T06:42:36.507Z,18.17
2019-05-23T06:45:08.708Z,23.42
2019-05-23T06:47:37.542Z,25.83
2019-05-23T06:50:16.564Z,21.65
2019-05-23T06:52:45.101Z,23.67
2019-05-23T06:55:13.679Z,19.57
2019-05-23T06:57:42.220Z,19.93
2019-05-23T07:00:10.966Z,21.82
2019-05-23T07:02:40.090Z,17.37
2019-05-23T07:05:08.653Z,19.82
2019-05-23T07:07:37.290Z,21.60
2019-05-23T07:10:08.860Z,19.65
2019-05-23T07:12:37.497Z,19.67
2019-05-23T07:15:07.046Z,24.10
2019-05-23T07:17:35.977Z,19.27
2019-05-23T07:20:06.613Z,16.97
2019-05-23T07:22:35.152Z,17.57
2019-05-23T07:25:04.886Z,22.63
2019-05-23T07:27:34.525Z,23.97
2019-05-23T07:30:05.829Z,18.87
2019-05-23T07:32:34.461Z,17.60
2019-05-23T07:35:03.189Z,16.80
2019-05-23T07:37:31.670Z,18.03
2019-05-23T07:40:00.171Z,19.90
2019-05-23T07:42:28.786Z,23.20
2019-05-23T07:44:58.960Z,21.60
2019-05-23T07:47:27.494Z,20.93
2019-05-23T07:49:55.973Z,18.80
2019-05-23T07:52:24.740Z,19.23
2019-05-23T07:54:54.840Z,26.67
2019-05-23T07:57:23.347Z,18.50
2019-05-23T07:59:51.831Z,18.50
2019-05-23T08:02:27.002Z,17.92
2019-05-23T08:04:55.469Z,19.63
2019-05-23T08:07:24.937Z,16.37
2019-05-23T08:09:53.866Z,18.17
2019-05-23T08:12:22.399Z,18.00
2019-05-23T08:14:51.238Z,18.33
2019-05-23T08:17:20.488Z,18.00
2019-05-23T08:19:50.526Z,17.77
2019-05-23T08:22:19.153Z,17.07
2019-05-23T08:24:51.101Z,17.93
2019-05-23T08:27:17.858Z,16.07
2019-05-23T08:29:46.381Z,15.13
2019-05-23T08:32:14.880Z,16.67
2019-05-23T08:34:43.499Z,13.67
2019-05-23T08:37:12.205Z,16.30
2019-05-23T08:39:40.735Z,18.30
2019-05-23T08:42:09.592Z,14.98
2019-05-23T08:44:38.170Z,11.13
2019-05-23T08:47:08.320Z,11.37
2019-05-23T08:49:36.771Z,10.47
2019-05-23T08:52:05.805Z,8.10
2019-05-23T08:54:34.891Z,9.70
2019-05-23T08:57:04.346Z,8.80
2019-05-23T08:59:33.057Z,7.63
2019-05-23T09:02:01.988Z,9.30
2019-05-23T09:04:30.813Z,8.07
2019-05-23T09:06:59.478Z,6.50
2019-05-23T09:09:30.532Z,5.70
2019-05-23T09:11:59.577Z,7.17
2019-05-23T09:14:28.216Z,6.80
2019-05-23T09:16:56.709Z,5.33
2019-05-23T09:19:25.243Z,7.10
2019-05-23T09:21:57.808Z,5.57
2019-05-23T09:24:24.025Z,4.93
2019-05-23T09:26:52.583Z,7.00
2019-05-23T09:29:21.234Z,7.67
2019-05-23T09:31:49.762Z,6.10
2019-05-23T09:34:18.236Z,8.00
2019-05-23T09:36:46.736Z,4.13
2019-05-23T09:39:17.102Z,5.13
2019-05-23T09:41:46.217Z,8.30
2019-05-23T09:44:14.762Z,5.23
2019-05-23T09:46:43.235Z,5.53
2019-05-23T09:49:11.846Z,20.40
2019-05-23T09:51:40.315Z,20.70
2019-05-23T09:54:08.985Z,11.47
2019-05-23T09:56:38.585Z,6.60
2019-05-23T09:59:07.086Z,5.10
2019-05-23T10:01:35.605Z,5.30
2019-05-23T10:04:04.536Z,6.53
2019-05-23T10:06:33.012Z,4.95
2019-05-23T10:09:01.502Z,4.60
2019-05-23T10:11:29.965Z,6.00
2019-05-23T10:13:58.685Z,4.60
2019-05-23T10:16:27.297Z,5.07
2019-05-23T10:18:56.017Z,4.60
2019-05-23T10:21:24.656Z,4.83
2019-05-23T10:23:53.147Z,4.30
2019-05-23T10:26:21.788Z,5.03
2019-05-23T10:28:50.270Z,4.73
2019-05-23T10:31:18.803Z,4.73
2019-05-23T10:33:47.365Z,4.57
2019-05-23T10:36:15.817Z,3.80
2019-05-23T10:38:44.378Z,5.33
2019-05-23T10:41:12.968Z,5.70
2019-05-23T10:43:41.458Z,6.13
2019-05-23T10:46:09.927Z,5.83
2019-05-23T10:48:39.786Z,5.30
2019-05-23T10:51:08.297Z,5.10
2019-05-23T10:53:36.877Z,6.00
2019-05-23T10:56:06.447Z,7.90
2019-05-23T10:58:35.296Z,7.53
2019-05-23T11:01:04.236Z,4.80
2019-05-23T11:03:33.187Z,3.53
2019-05-23T11:06:15.007Z,6.10
2019-05-23T11:08:32.288Z,4.43
2019-05-23T11:11:00.987Z,5.83
2019-05-23T11:13:29.763Z,5.10
2019-05-23T11:15:58.252Z,6.20
2019-05-23T11:18:26.789Z,8.50
2019-05-23T11:20:55.324Z,6.50
2019-05-23T11:23:25.658Z,5.70
2019-05-23T11:25:54.505Z,9.30
2019-05-23T11:28:23.893Z,7.20
2019-05-23T11:30:54.181Z,6.13
2019-05-23T11:33:23.691Z,8.53
2019-05-23T11:35:52.245Z,6.90
2019-05-23T11:38:20.978Z,6.30
2019-05-23T11:40:49.637Z,5.13
2019-05-23T11:43:18.162Z,5.30
2019-05-23T11:46:00.191Z,6.00
2019-05-23T11:48:29.011Z,4.97
2019-05-23T11:50:57.548Z,6.60
2019-05-23T11:53:26.086Z,8.83
2019-05-23T11:55:54.818Z,7.27
2019-05-23T11:58:23.961Z,5.40
2019-05-23T12:01:00.150Z,6.73
2019-05-23T12:03:28.653Z,4.87
2019-05-23T12:05:57.166Z,8.40
2019-05-23T12:08:25.762Z,8.07
2019-05-23T12:10:54.250Z,4.47
2019-05-23T12:13:22.706Z,5.80
2019-05-23T12:15:51.544Z,5.00
2019-05-23T12:18:20.069Z,5.50
2019-05-23T12:20:48.631Z,8.03
2019-05-23T12:23:17.134Z,8.27
2019-05-23T12:25:45.663Z,8.03
2019-05-23T12:28:15.391Z,6.80
2019-05-23T12:30:43.872Z,7.47
2019-05-23T12:33:12.335Z,13.20
2019-05-23T12:35:40.824Z,8.00
2019-05-23T12:38:09.450Z,9.10
2019-05-23T12:40:37.943Z,7.53
2019-05-23T12:43:06.408Z,6.60
2019-05-23T12:45:34.894Z,8.70
2019-05-23T12:48:05.007Z,6.13
2019-05-23T12:50:44.044Z,4.73
2019-05-23T12:53:14.144Z,8.80
2019-05-23T12:55:42.638Z,9.47
2019-05-23T12:58:11.186Z,10.50
2019-05-23T13:00:41.411Z,6.20
2019-05-23T13:03:11.868Z,5.90
2019-05-23T13:05:41.373Z,5.50
2019-05-23T13:08:09.902Z,5.30
2019-05-23T13:10:38.602Z,6.80
2019-05-23T13:13:07.076Z,5.77
2019-05-23T13:15:36.222Z,5.50
2019-05-23T13:18:05.232Z,3.90
2019-05-23T13:20:34.106Z,3.33
2019-05-23T13:23:02.750Z,7.47
2019-05-23T13:25:31.272Z,3.33
2019-05-23T13:27:59.761Z,8.70
2019-05-23T13:30:28.310Z,4.83
2019-05-23T13:32:56.793Z,4.00
2019-05-23T13:35:26.888Z,5.00
2019-05-23T13:37:55.424Z,4.47
2019-05-23T13:40:24.014Z,5.87
2019-05-23T13:42:52.613Z,8.47
2019-05-23T13:45:21.109Z,8.03
2019-05-23T13:47:49.598Z,7.87
2019-05-23T13:50:19.074Z,6.30
2019-05-23T13:52:48.141Z,5.27
2019-05-23T13:55:17.028Z,4.37
2019-05-23T13:57:45.591Z,2.67
2019-05-23T14:00:15.190Z,2.20
2019-05-23T14:02:43.821Z,15.17
2019-05-23T14:05:12.901Z,12.17
2019-05-23T14:07:41.764Z,5.83
2019-05-23T14:10:10.970Z,2.97
2019-05-23T14:12:40.099Z,5.33
2019-05-23T14:15:10.639Z,5.90
2019-05-23T14:17:43.483Z,3.10
2019-05-23T14:20:13.463Z,3.13
2019-05-23T14:22:43.711Z,4.77
2019-05-23T14:25:12.463Z,4.17
2019-05-23T14:27:51.634Z,2.90
2019-05-23T14:30:39.864Z,5.47
2019-05-23T14:33:27.705Z,4.80
2019-05-23T14:35:57.880Z,3.27
2019-05-23T14:38:31.219Z,2.40
2019-05-23T14:40:58.391Z,2.33
2019-05-23T14:43:28.016Z,2.60
2019-05-23T14:45:58.198Z,2.47
2019-05-23T14:48:28.389Z,3.03
2019-05-23T14:50:58.561Z,4.83
2019-05-23T14:53:28.749Z,5.13
2019-05-23T14:55:57.491Z,2.70
2019-05-23T14:58:26.155Z,2.90
2019-05-23T15:00:55.058Z,1.77
2019-05-23T15:03:23.886Z,3.50
2019-05-23T15:05:52.358Z,2.67
2019-05-23T15:08:21.339Z,4.50
2019-05-23T15:10:50.699Z,3.58
2019-05-23T15:13:19.900Z,4.00
2019-05-23T15:15:48.359Z,3.67
2019-05-23T15:18:16.946Z,4.17
2019-05-23T15:20:45.462Z,4.00
2019-05-23T15:23:13.951Z,5.73
2019-05-23T15:25:42.417Z,2.50
2019-05-23T15:28:10.983Z,3.57
2019-05-23T15:30:39.447Z,2.00
2019-05-23T15:33:07.941Z,2.13
2019-05-23T15:35:36.681Z,3.83
2019-05-23T15:38:05.272Z,2.00
2019-05-23T15:40:33.701Z,3.03
2019-05-23T15:43:02.203Z,2.67
2019-05-23T15:45:30.930Z,2.37
2019-05-23T15:47:59.426Z,4.63
2019-05-23T15:50:29.531Z,5.30
2019-05-23T15:53:02.632Z,3.27
2019-05-23T15:55:32.726Z,3.13
2019-05-23T15:58:22.098Z,2.63
2019-05-23T16:00:53.382Z,3.40
2019-05-23T16:03:32.222Z,3.53
2019-05-23T16:06:01.782Z,2.27
2019-05-23T16:08:30.691Z,3.00
2019-05-23T16:10:59.698Z,3.42
2019-05-23T16:13:28.358Z,3.50
2019-05-23T16:15:56.815Z,3.30
2019-05-23T16:18:25.526Z,3.00
2019-05-23T16:20:53.997Z,2.87
2019-05-23T16:23:22.543Z,2.30
2019-05-23T16:25:51.031Z,2.00
2019-05-23T16:28:19.498Z,2.90
2019-05-23T16:30:48.503Z,1.77
2019-05-23T16:33:16.986Z,2.30
2019-05-23T16:35:45.515Z,2.20
2019-05-23T16:38:14.002Z,1.80
2019-05-23T16:40:42.525Z,1.73
2019-05-23T16:43:11.024Z,1.80
2019-05-23T16:45:39.500Z,2.33
2019-05-23T16:48:08.129Z,3.97
2019-05-23T16:50:36.587Z,3.10
2019-05-23T16:53:05.080Z,3.37
2019-05-23T16:55:37.644Z,2.30
2019-05-23T16:58:16.690Z,2.17
2019-05-23T17:01:02.520Z,1.80
2019-05-23T17:03:38.401Z,2.10
2019-05-23T17:06:08.507Z,3.13
2019-05-23T17:08:50.522Z,2.70
2019-05-23T17:11:29.807Z,1.93
2019-05-23T17:14:00.033Z,1.80
2019-05-23T17:16:30.131Z,3.77
2019-05-23T17:19:16.006Z,2.00
2019-05-23T17:22:01.179Z,1.60
2019-05-23T17:24:39.950Z,1.73
2019-05-23T17:27:12.139Z,1.87
2019-05-23T17:29:50.872Z,1.93
2019-05-23T17:32:20.977Z,7.67
2019-05-23T17:34:49.481Z,20.17
2019-05-23T17:37:19.567Z,6.17
2019-05-23T17:39:48.134Z,3.10
2019-05-23T17:42:16.598Z,2.00
2019-05-23T17:44:45.091Z,3.17
2019-05-23T17:47:13.828Z,2.53
2019-05-23T17:49:42.377Z,1.90
2019-05-23T17:52:11.392Z,3.87
2019-05-23T17:54:40.107Z,2.43
2019-05-23T17:57:09.008Z,1.97
2019-05-23T17:59:37.568Z,1.80
2019-05-23T18:02:07.491Z,2.00
2019-05-23T18:04:36.251Z,2.10
2019-05-23T18:07:05.746Z,2.27
2019-05-23T18:09:34.241Z,1.70
2019-05-23T18:12:03.775Z,2.73
2019-05-23T18:14:32.331Z,1.80
2019-05-23T18:17:01.243Z,2.10
2019-05-23T18:19:29.985Z,2.30
2019-05-23T18:21:58.458Z,1.90
2019-05-23T18:24:27.506Z,1.93
2019-05-23T18:26:56.123Z,2.57
2019-05-23T18:29:24.783Z,2.00
2019-05-23T18:31:54.421Z,2.50
2019-05-23T18:34:23.890Z,2.23
2019-05-23T18:36:53.776Z,1.80
2019-05-23T18:39:22.932Z,2.03
2019-05-23T18:41:51.630Z,2.53
2019-05-23T18:44:20.199Z,2.30
2019-05-23T18:46:50.304Z,3.80
2019-05-23T18:49:20.057Z,3.17
2019-05-23T18:51:48.513Z,5.40
2019-05-23T18:54:17.005Z,4.43
2019-05-23T18:56:45.469Z,2.20
2019-05-23T18:59:14.033Z,2.67
2019-05-23T19:01:42.665Z,2.80
2019-05-23T19:04:11.171Z,3.63
2019-05-23T19:06:39.870Z,3.37
2019-05-23T19:09:11.761Z,2.70
2019-05-23T19:11:40.957Z,3.60
2019-05-23T19:14:09.654Z,2.67
2019-05-23T19:16:38.387Z,3.53
2019-05-23T19:19:07.275Z,4.47
2019-05-23T19:21:35.851Z,32.90
2019-05-23T19:24:04.749Z,31.40
2019-05-23T19:26:33.255Z,4.60
2019-05-23T19:29:01.722Z,3.90
2019-05-23T19:31:30.208Z,3.30
2019-05-23T19:33:58.700Z,4.30
2019-05-23T19:36:27.254Z,4.40
2019-05-23T19:38:55.710Z,6.47
2019-05-23T19:41:36.910Z,4.87
2019-05-23T19:43:54.575Z,3.23
2019-05-23T19:46:23.070Z,5.20
2019-05-23T19:48:52.806Z,5.47
2019-05-23T19:51:21.936Z,4.20
2019-05-23T19:53:50.941Z,3.30
2019-05-23T19:56:19.869Z,3.35
2019-05-23T19:58:48.331Z,3.97
2019-05-23T20:01:17.369Z,4.10
2019-05-23T20:03:45.899Z,4.23
2019-05-23T20:06:14.841Z,4.67
2019-05-23T20:08:44.147Z,4.70
2019-05-23T20:11:12.781Z,5.13
2019-05-23T20:13:41.290Z,5.47
2019-05-23T20:16:10.453Z,5.23
2019-05-23T20:18:39.265Z,8.93
2019-05-23T20:21:07.761Z,5.50
2019-05-23T20:23:36.240Z,5.07
2019-05-23T20:26:07.977Z,4.77
2019-05-23T20:28:35.329Z,4.80
2019-05-23T20:31:04.085Z,5.07
2019-05-23T20:33:32.613Z,6.10
2019-05-23T20:36:02.811Z,6.70
2019-05-23T20:38:31.339Z,10.10
2019-05-23T20:40:59.913Z,5.80
2019-05-23T20:43:28.391Z,5.67
2019-05-23T20:45:56.864Z,6.17
2019-05-23T20:48:25.878Z,6.03
2019-05-23T20:50:54.397Z,5.70
2019-05-23T20:53:23.190Z,6.03
2019-05-23T20:55:51.682Z,5.10
2019-05-23T20:58:20.223Z,6.10
2019-05-23T21:00:56.372Z,5.80
2019-05-23T21:03:26.604Z,7.07
2019-05-23T21:05:55.229Z,5.17
2019-05-23T21:08:23.722Z,5.50
2019-05-23T21:10:52.181Z,5.60
2019-05-23T21:13:20.677Z,8.13
2019-05-23T21:15:49.204Z,7.03
2019-05-23T21:18:17.698Z,14.17
2019-05-23T21:20:46.208Z,8.40
2019-05-23T21:23:14.812Z,6.80
2019-05-23T21:25:47.519Z,9.40
2019-05-23T21:28:15.978Z,7.10
2019-05-23T21:30:44.545Z,5.37
2019-05-23T21:33:13.228Z,7.13
2019-05-23T21:35:41.674Z,6.10
2019-05-23T21:38:10.463Z,6.50
2019-05-23T21:40:41.219Z,7.97
2019-05-23T21:43:09.881Z,6.73
2019-05-23T21:45:38.348Z,5.03
2019-05-23T21:48:07.384Z,6.30
2019-05-23T21:50:35.837Z,7.80
2019-05-23T21:53:04.344Z,6.27
2019-05-23T21:55:38.039Z,5.50
2019-05-23T21:58:07.669Z,7.20
2019-05-23T22:01:07.638Z,5.87
2019-05-23T22:03:49.525Z,7.07
2019-05-23T22:06:19.627Z,6.57
2019-05-23T22:08:48.950Z,6.70
2019-05-23T22:11:17.681Z,8.15
2019-05-23T22:13:46.179Z,9.50
2019-05-23T22:16:14.879Z,9.97
2019-05-23T22:18:43.558Z,7.43
2019-05-23T22:21:12.206Z,8.43
2019-05-23T22:23:40.699Z,7.47
2019-05-23T22:26:09.171Z,7.03
2019-05-23T22:28:37.741Z,10.70
2019-05-23T22:31:07.437Z,6.72
2019-05-23T22:33:37.576Z,10.00
2019-05-23T22:36:06.039Z,7.60
2019-05-23T22:38:34.545Z,7.83
2019-05-23T22:41:03.013Z,6.73
2019-05-23T22:43:31.506Z,7.00
2019-05-23T22:46:00.050Z,7.07
2019-05-23T22:48:28.614Z,6.70
2019-05-23T22:50:57.154Z,7.33
2019-05-23T22:53:25.642Z,7.13
2019-05-23T22:55:54.484Z,9.40
2019-05-23T22:58:23.046Z,7.93
2019-05-23T23:00:51.585Z,6.50
2019-05-23T23:03:20.158Z,6.20
2019-05-23T23:05:48.970Z,6.63
2019-05-23T23:08:17.631Z,7.03
2019-05-23T23:10:46.061Z,6.53
2019-05-23T23:13:14.967Z,6.60
2019-05-23T23:15:43.526Z,7.00
2019-05-23T23:18:11.984Z,6.70
2019-05-23T23:20:40.476Z,9.97
2019-05-23T23:23:09.115Z,7.37
2019-05-23T23:25:37.594Z,7.93
2019-05-23T23:28:06.133Z,13.23
2019-05-23T23:30:36.266Z,8.20
2019-05-23T23:33:04.796Z,5.70
2019-05-23T23:35:34.427Z,5.70
2019-05-23T23:38:02.895Z,6.40
2019-05-23T23:40:31.384Z,7.47
2019-05-23T23:42:59.847Z,8.60
2019-05-23T23:45:45.953Z,9.33
2019-05-23T23:48:32.081Z,7.70
2019-05-23T23:51:18.054Z,6.00
2019-05-23T23:54:04.466Z,6.60
2019-05-23T23:56:50.688Z,7.40
2019-05-23T23:59:18.571Z,7.60
